createdAt,value
2023-03-27T08:29:29.520Z,7.61
2023-03-27T08:31:33.054Z,7.61
2023-03-27T08:33:36.518Z,7.04
2023-03-27T08:35:39.191Z,6.91
2023-03-27T08:37:44.018Z,6.92
2023-03-27T08:39:47.468Z,6.95
2023-03-27T08:41:57.097Z,6.84
2023-03-27T08:44:03.567Z,6.84
2023-03-27T08:46:12.795Z,6.91
2023-03-27T08:48:40.109Z,6.88
2023-03-27T08:50:49.681Z,7.03
2023-03-27T08:52:53.063Z,6.86
2023-03-27T08:55:18.882Z,6.91
2023-03-27T08:57:24.355Z,6.86
2023-03-27T08:59:31.587Z,6.92
2023-03-27T09:01:51.091Z,6.95
2023-03-27T09:04:12.888Z,6.85
2023-03-27T09:06:25.476Z,6.96
2023-03-27T09:08:33.842Z,6.90
2023-03-27T09:10:59.988Z,6.87
2023-03-27T09:13:19.022Z,6.81
2023-03-27T09:15:26.396Z,6.94
2023-03-27T09:18:01.520Z,7.20
2023-03-27T09:20:19.195Z,7.00
2023-03-27T09:22:34.245Z,6.81
2023-03-27T09:24:44.623Z,6.86
2023-03-27T09:27:01.101Z,6.69
2023-03-27T09:29:20.101Z,6.74
2023-03-27T09:31:29.287Z,6.90
2023-03-27T09:33:32.108Z,6.98
2023-03-27T09:35:38.720Z,6.76
2023-03-27T09:37:42.927Z,6.62
2023-03-27T09:39:51.666Z,6.79
2023-03-27T09:41:59.796Z,6.86
2023-03-27T09:44:20.967Z,6.73
2023-03-27T09:46:26.525Z,6.77
2023-03-27T09:48:40.862Z,6.58
2023-03-27T09:50:47.563Z,6.55
2023-03-27T09:52:52.358Z,6.51
2023-03-27T09:54:56.182Z,6.35
2023-03-27T09:57:11.042Z,6.39
2023-03-27T09:59:40.477Z,6.36
2023-03-27T10:01:48.176Z,6.26
2023-03-27T10:03:54.137Z,6.31
2023-03-27T10:06:07.120Z,6.40
2023-03-27T10:08:37.965Z,6.30
2023-03-27T10:10:45.803Z,6.30
2023-03-27T10:12:57.289Z,6.29
2023-03-27T10:15:04.952Z,6.31
2023-03-27T10:17:21.389Z,6.16
2023-03-27T10:19:37.187Z,5.98
2023-03-27T10:21:44.097Z,6.00
2023-03-27T10:23:49.896Z,5.94
2023-03-27T10:25:58.557Z,6.00
2023-03-27T10:28:22.466Z,6.03
2023-03-27T10:30:28.138Z,6.11
2023-03-27T10:32:47.667Z,6.18
2023-03-27T10:34:57.368Z,6.26
2023-03-27T10:37:03.500Z,6.14
2023-03-27T10:39:12.931Z,6.08
2023-03-27T10:41:28.431Z,6.03
2023-03-27T10:43:37.880Z,6.11
2023-03-27T10:45:47.634Z,6.22
2023-03-27T10:47:57.884Z,6.38
2023-03-27T10:50:31.146Z,6.18
2023-03-27T10:52:52.002Z,6.34
2023-03-27T10:55:16.442Z,6.56
2023-03-27T10:57:24.321Z,6.64
2023-03-27T10:59:41.797Z,6.31
2023-03-27T11:01:53.726Z,6.04
2023-03-27T11:04:08.398Z,5.89
2023-03-27T11:06:16.600Z,5.87
2023-03-27T11:08:23.831Z,5.89
2023-03-27T11:10:39.759Z,5.90
2023-03-27T11:12:51.149Z,5.97
2023-03-27T11:15:07.522Z,6.07
2023-03-27T11:17:16.104Z,6.13
2023-03-27T11:19:28.645Z,5.83
2023-03-27T11:21:40.054Z,5.75
2023-03-27T11:23:50.647Z,5.86
2023-03-27T11:25:54.978Z,5.94
2023-03-27T11:28:42.925Z,6.01
2023-03-27T11:31:12.085Z,5.86
2023-03-27T11:33:49.075Z,5.64
2023-03-27T11:36:00.949Z,5.79
2023-03-27T11:38:28.892Z,5.92
2023-03-27T11:40:38.126Z,5.97
2023-03-27T11:42:45.348Z,5.89
2023-03-27T11:44:48.284Z,5.94
2023-03-27T11:47:22.133Z,6.20
2023-03-27T11:49:36.964Z,6.42
2023-03-27T11:51:58.049Z,6.27
2023-03-27T11:54:16.240Z,6.41
2023-03-27T11:56:45.561Z,6.15
2023-03-27T11:59:22.741Z,6.27
2023-03-27T12:01:37.664Z,6.58
2023-03-27T12:03:52.711Z,6.74
2023-03-27T12:06:15.522Z,6.92
2023-03-27T12:08:41.056Z,6.59
2023-03-27T12:10:47.699Z,6.57
2023-03-27T12:12:56.465Z,6.73
2023-03-27T12:15:17.361Z,6.96
2023-03-27T12:17:27.922Z,7.12
2023-03-27T12:19:45.560Z,7.04
2023-03-27T12:22:22.547Z,7.07
2023-03-27T12:24:32.401Z,7.15
2023-03-27T12:26:56.447Z,7.09
2023-03-27T12:29:23.775Z,7.06
2023-03-27T12:31:36.098Z,7.19
2023-03-27T12:34:01.170Z,7.36
2023-03-27T12:36:06.654Z,7.37
2023-03-27T12:38:29.448Z,7.55
2023-03-27T12:40:48.114Z,7.27
2023-03-27T12:42:52.969Z,7.48
2023-03-27T12:45:13.488Z,7.34
2023-03-27T12:47:24.439Z,7.20
2023-03-27T12:49:37.110Z,7.54
2023-03-27T12:51:39.831Z,7.96
2023-03-27T12:53:56.462Z,8.08
2023-03-27T12:56:17.439Z,8.18
2023-03-27T12:58:34.419Z,8.21
2023-03-27T13:00:37.792Z,8.22
2023-03-27T13:03:08.474Z,7.93
2023-03-27T13:05:37.377Z,7.72
2023-03-27T13:07:54.621Z,7.81
2023-03-27T13:10:26.637Z,7.68
2023-03-27T13:12:57.634Z,7.72
2023-03-27T13:15:12.468Z,7.59
2023-03-27T13:17:45.122Z,7.53
2023-03-27T13:20:00.512Z,7.36
2023-03-27T13:22:03.838Z,7.30
2023-03-27T13:24:29.061Z,7.37
2023-03-27T13:26:37.566Z,7.25
2023-03-27T13:28:49.014Z,7.21
2023-03-27T13:30:54.963Z,7.23
2023-03-27T13:33:24.335Z,6.94
2023-03-27T13:35:39.054Z,6.84
2023-03-27T13:37:52.215Z,6.77
2023-03-27T13:39:55.721Z,6.75
2023-03-27T13:42:04.877Z,6.58
2023-03-27T13:44:35.799Z,6.54
2023-03-27T13:46:43.489Z,6.54
2023-03-27T13:49:18.366Z,6.54
2023-03-27T13:51:58.593Z,6.57
2023-03-27T13:54:37.423Z,6.31
2023-03-27T13:56:49.435Z,6.10
2023-03-27T13:59:14.200Z,6.08
2023-03-27T14:01:54.873Z,6.06
2023-03-27T14:04:33.295Z,6.11
2023-03-27T14:06:59.886Z,6.00
2023-03-27T14:09:13.311Z,5.95
2023-03-27T14:11:37.906Z,6.03
2023-03-27T14:13:50.083Z,6.06
2023-03-27T14:16:15.673Z,5.89
2023-03-27T14:18:31.561Z,5.76
2023-03-27T14:21:00.714Z,5.81
2023-03-27T14:23:23.011Z,5.62
2023-03-27T14:25:34.381Z,5.74
2023-03-27T14:27:41.439Z,5.50
2023-03-27T14:29:45.209Z,5.54
2023-03-27T14:31:48.656Z,5.53
2023-03-27T14:34:33.305Z,5.51
2023-03-27T14:36:52.048Z,5.28
2023-03-27T14:39:00.188Z,5.22
2023-03-27T14:41:06.987Z,5.09
2023-03-27T14:43:16.737Z,5.25
2023-03-27T14:45:27.524Z,5.27
2023-03-27T14:47:30.439Z,5.14
2023-03-27T14:49:38.921Z,4.94
2023-03-27T14:51:43.267Z,5.01
2023-03-27T14:53:51.107Z,5.05
2023-03-27T14:55:57.114Z,5.06
2023-03-27T14:58:11.196Z,5.16
2023-03-27T15:00:20.918Z,5.04
2023-03-27T15:02:35.017Z,5.06
2023-03-27T15:04:40.226Z,5.13
2023-03-27T15:06:43.029Z,5.11
2023-03-27T15:08:52.430Z,5.13
2023-03-27T15:10:57.373Z,4.84
2023-03-27T15:13:01.469Z,4.77
2023-03-27T15:15:40.468Z,4.47
2023-03-27T15:17:45.457Z,4.59
2023-03-27T15:19:51.075Z,4.48
2023-03-27T15:22:01.768Z,4.54
2023-03-27T15:24:07.893Z,4.48
2023-03-27T15:26:20.613Z,4.30
2023-03-27T15:28:33.890Z,4.29
2023-03-27T15:30:46.744Z,4.17
2023-03-27T15:32:53.271Z,4.00
2023-03-27T15:35:03.433Z,3.98
2023-03-27T15:37:13.231Z,3.95
2023-03-27T15:39:23.253Z,3.92
2023-03-27T15:41:28.871Z,3.91
2023-03-27T15:43:31.397Z,3.98
2023-03-27T15:45:40.041Z,3.91
2023-03-27T15:47:43.844Z,3.97
2023-03-27T15:49:46.692Z,3.98
2023-03-27T15:51:49.689Z,3.86
2023-03-27T15:53:55.974Z,3.82
2023-03-27T15:56:00.880Z,3.67
2023-03-27T15:58:21.365Z,3.79
2023-03-27T16:00:24.988Z,3.83
2023-03-27T16:02:30.122Z,3.81
2023-03-27T16:04:47.004Z,3.79
2023-03-27T16:07:13.714Z,3.76
2023-03-27T16:09:19.295Z,3.84
2023-03-27T16:11:40.175Z,3.83
2023-03-27T16:13:58.845Z,3.76
2023-03-27T16:16:20.757Z,3.69
2023-03-27T16:18:31.937Z,3.71
2023-03-27T16:20:40.072Z,3.69
2023-03-27T16:22:43.570Z,3.66
2023-03-27T16:24:47.090Z,3.73
2023-03-27T16:26:52.604Z,3.70
2023-03-27T16:29:00.365Z,3.76
2023-03-27T16:31:15.164Z,3.75
2023-03-27T16:33:22.740Z,3.64
2023-03-27T16:35:26.946Z,3.59
2023-03-27T16:37:29.607Z,3.61
2023-03-27T16:39:32.376Z,3.71
2023-03-27T16:41:37.103Z,3.70
2023-03-27T16:43:42.198Z,3.79
2023-03-27T16:45:46.059Z,3.69
2023-03-27T16:47:53.168Z,3.65
2023-03-27T16:50:10.285Z,3.74
2023-03-27T16:52:14.298Z,3.75
2023-03-27T16:54:18.019Z,3.76
2023-03-27T16:56:21.678Z,3.89
2023-03-27T16:58:24.236Z,3.83
2023-03-27T17:00:27.913Z,3.75
2023-03-27T17:02:34.097Z,3.78
2023-03-27T17:04:40.513Z,3.80
2023-03-27T17:06:43.424Z,3.74
2023-03-27T17:08:46.361Z,3.73
2023-03-27T17:10:49.129Z,3.68
2023-03-27T17:12:55.910Z,3.72
2023-03-27T17:14:58.955Z,3.75
2023-03-27T17:17:01.704Z,3.70
2023-03-27T17:19:08.159Z,3.74
2023-03-27T17:21:11.576Z,3.67
2023-03-27T17:23:15.325Z,3.61
2023-03-27T17:25:19.804Z,3.71
2023-03-27T17:27:22.366Z,3.72
2023-03-27T17:29:24.865Z,3.70
2023-03-27T17:31:30.683Z,3.75
2023-03-27T17:33:36.778Z,3.68
2023-03-27T17:35:42.000Z,3.67
2023-03-27T17:37:45.288Z,3.70
2023-03-27T17:39:49.016Z,3.65
2023-03-27T17:41:53.470Z,3.63
2023-03-27T17:43:57.364Z,3.62
2023-03-27T17:46:01.755Z,3.61
2023-03-27T17:48:07.367Z,3.53
2023-03-27T17:50:13.783Z,3.48
2023-03-27T17:52:17.000Z,3.42
2023-03-27T17:54:20.519Z,3.41
2023-03-27T17:56:24.034Z,3.38
2023-03-27T17:58:28.808Z,3.39
2023-03-27T18:00:32.474Z,3.30
2023-03-27T18:02:36.281Z,3.27
2023-03-27T18:04:40.153Z,3.26
2023-03-27T18:06:43.232Z,3.20
2023-03-27T18:08:47.723Z,3.16
2023-03-27T18:10:51.609Z,3.12
2023-03-27T18:12:54.817Z,3.09
2023-03-27T18:14:59.160Z,3.04
2023-03-27T18:17:02.135Z,3.05
2023-03-27T18:19:06.259Z,3.07
2023-03-27T18:21:09.831Z,3.04
2023-03-27T18:23:13.520Z,2.98
2023-03-27T18:25:17.094Z,2.89
2023-03-27T18:27:20.978Z,2.94
2023-03-27T18:29:25.122Z,2.88
2023-03-27T18:31:28.504Z,2.94
2023-03-27T18:33:33.385Z,2.86
2023-03-27T18:35:37.082Z,2.93
2023-03-27T18:37:42.559Z,2.88
2023-03-27T18:39:47.220Z,2.82
2023-03-27T18:41:50.232Z,2.78
2023-03-27T18:43:54.144Z,2.79
2023-03-27T18:46:05.528Z,2.77
2023-03-27T18:48:10.183Z,2.76
2023-03-27T18:50:14.854Z,2.74
2023-03-27T18:52:20.210Z,2.68
2023-03-27T18:54:24.858Z,2.69
2023-03-27T18:56:28.071Z,2.64
2023-03-27T18:58:36.062Z,2.62
2023-03-27T19:00:39.879Z,2.62
2023-03-27T19:02:45.121Z,2.63
2023-03-27T19:04:48.655Z,2.60
2023-03-27T19:07:01.074Z,2.62
2023-03-27T19:09:05.715Z,2.64
2023-03-27T19:11:11.474Z,2.64
2023-03-27T19:13:28.508Z,2.63
2023-03-27T19:15:33.200Z,2.61
2023-03-27T19:17:37.658Z,2.63
2023-03-27T19:19:44.588Z,2.59
2023-03-27T19:21:50.730Z,2.59
2023-03-27T19:23:54.628Z,2.64
2023-03-27T19:26:12.447Z,2.60
2023-03-27T19:28:16.760Z,2.58
2023-03-27T19:30:23.753Z,2.57
2023-03-27T19:32:27.603Z,2.61
2023-03-27T19:34:42.094Z,2.53
2023-03-27T19:36:51.024Z,2.54
2023-03-27T19:38:55.924Z,2.54
2023-03-27T19:41:00.201Z,2.52
2023-03-27T19:43:12.110Z,2.59
2023-03-27T19:45:16.339Z,2.59
2023-03-27T19:47:22.961Z,2.59
2023-03-27T19:49:27.435Z,2.53
2023-03-27T19:51:31.771Z,2.51
2023-03-27T19:53:35.492Z,2.52
2023-03-27T19:55:40.597Z,2.56
2023-03-27T19:57:47.544Z,2.57
2023-03-27T19:59:51.621Z,2.54
2023-03-27T20:01:55.492Z,2.54
2023-03-27T20:04:00.465Z,2.51
2023-03-27T20:06:13.373Z,2.50
2023-03-27T20:08:18.926Z,2.53
2023-03-27T20:10:24.743Z,2.54
2023-03-27T20:12:28.130Z,2.47
2023-03-27T20:14:33.818Z,2.49
2023-03-27T20:16:38.983Z,2.47
2023-03-27T20:18:44.041Z,2.43
2023-03-27T20:20:50.718Z,2.43
2023-03-27T20:22:57.940Z,2.47
2023-03-27T20:25:00.685Z,2.49
2023-03-27T20:27:07.342Z,2.47
2023-03-27T20:29:13.303Z,2.45
2023-03-27T20:31:17.394Z,2.44
2023-03-27T20:33:20.834Z,2.47
2023-03-27T20:35:25.257Z,2.43
2023-03-27T20:37:30.734Z,2.44
2023-03-27T20:39:33.907Z,2.40
2023-03-27T20:41:39.633Z,2.43
2023-03-27T20:43:46.161Z,2.38
2023-03-27T20:45:54.972Z,2.39
2023-03-27T20:48:04.293Z,2.37
2023-03-27T20:50:07.628Z,2.40
2023-03-27T20:52:13.036Z,2.39
2023-03-27T20:54:15.742Z,2.46
2023-03-27T20:56:18.137Z,2.35
2023-03-27T20:58:20.669Z,2.37
2023-03-27T21:00:24.427Z,2.32
2023-03-27T21:02:26.889Z,2.36
2023-03-27T21:04:31.542Z,2.36
2023-03-27T21:06:34.211Z,2.30
2023-03-27T21:08:37.152Z,2.38
2023-03-27T21:10:40.048Z,2.29
2023-03-27T21:12:43.038Z,2.24
2023-03-27T21:14:45.347Z,2.20
2023-03-27T21:16:47.817Z,2.24
2023-03-27T21:18:50.837Z,2.23
2023-03-27T21:20:53.573Z,2.23
2023-03-27T21:22:56.251Z,2.23
2023-03-27T21:24:58.940Z,2.19
2023-03-27T21:27:01.303Z,2.20
2023-03-27T21:29:03.960Z,2.20
2023-03-27T21:31:10.758Z,2.20
2023-03-27T21:33:15.248Z,2.21
2023-03-27T21:35:17.967Z,2.17
2023-03-27T21:37:20.751Z,2.13
2023-03-27T21:39:23.090Z,2.14
2023-03-27T21:41:26.659Z,2.18
2023-03-27T21:43:29.918Z,2.17
2023-03-27T21:45:32.356Z,2.14
2023-03-27T21:47:46.608Z,2.14
2023-03-27T21:49:50.067Z,2.11
2023-03-27T21:51:52.619Z,2.10
2023-03-27T21:53:55.045Z,2.12
2023-03-27T21:55:58.366Z,2.08
2023-03-27T21:58:00.936Z,2.08
2023-03-27T22:00:05.146Z,2.13
2023-03-27T22:02:14.969Z,2.10
2023-03-27T22:04:18.562Z,2.12
2023-03-27T22:06:22.314Z,2.11
